Weather at Røros Airport

Public forecast

Using degrees Celsius for public forecast. Weather courtesy of forecast.io.

Current aviation weather report (METAR) for Røros Airport

2024/05/30 03:50 (retrieved 18 minutes ago)

ENRO 300350Z AUTO VRB01KT 9999 FEW196/// 05/04 Q1011

Closest aviation forecast (TAF) to Røros Airport

Forecast is more than 12 hours old.

Closest forecast is Quaqtaq Airport, 2,145.5 nm (3,973.6 km) NW.

2024/05/29 14:00 (retrieved 14 hours ago)

TAF CYHA 291340Z 2914/2921 28007KT P6SM BKN030 TEMPO 2914/2918 BKN020 BECMG 2916/2918 18008KT RMK NXT FCST BY 301400Z